sensor_id;sensor_type;location;lat;lon;timestamp;P1;durP1;ratioP1;P2;durP2;ratioP2
22219;SDS011;11279;48.364;10.904;2023-05-10T00:00:39;4.27;;;2.30;;
22219;SDS011;11279;48.364;10.904;2023-05-10T00:01:39;3.20;;;2.63;;
22219;SDS011;11279;48.364;10.904;2023-05-10T00:02:40;2.67;;;2.10;;
22219;SDS011;11279;48.364;10.904;2023-05-10T00:03:40;3.90;;;2.53;;
22219;SDS011;11279;48.364;10.904;2023-05-10T00:04:41;3.43;;;2.77;;
22219;SDS011;11279;48.364;10.904;2023-05-10T00:05:41;3.90;;;2.37;;
22219;SDS011;11279;48.364;10.904;2023-05-10T00:06:42;5.17;;;2.20;;
22219;SDS011;11279;48.364;10.904;2023-05-10T00:07:42;3.23;;;2.13;;
22219;SDS011;11279;48.364;10.904;2023-05-10T00:08:44;3.40;;;2.30;;
22219;SDS011;11279;48.364;10.904;2023-05-10T00:09:45;5.93;;;2.93;;
22219;SDS011;11279;48.364;10.904;2023-05-10T00:10:45;3.93;;;2.27;;
22219;SDS011;11279;48.364;10.904;2023-05-10T00:11:46;2.73;;;2.10;;
22219;SDS011;11279;48.364;10.904;2023-05-10T00:12:46;4.53;;;2.33;;
22219;SDS011;11279;48.364;10.904;2023-05-10T00:13:47;3.70;;;2.43;;
22219;SDS011;11279;48.364;10.904;2023-05-10T00:14:47;3.53;;;2.37;;
22219;SDS011;11279;48.364;10.904;2023-05-10T00:15:48;3.07;;;2.70;;
22219;SDS011;11279;48.364;10.904;2023-05-10T00:16:48;5.00;;;2.63;;
22219;SDS011;11279;48.364;10.904;2023-05-10T00:17:48;4.13;;;3.10;;
22219;SDS011;11279;48.364;10.904;2023-05-10T00:18:49;5.97;;;3.33;;
22219;SDS011;11279;48.364;10.904;2023-05-10T00:19:49;5.37;;;2.93;;
22219;SDS011;11279;48.364;10.904;2023-05-10T00:20:50;4.50;;;3.20;;
22219;SDS011;11279;48.364;10.904;2023-05-10T00:21:50;4.30;;;3.00;;
22219;SDS011;11279;48.364;10.904;2023-05-10T00:22:51;3.30;;;2.37;;
22219;SDS011;11279;48.364;10.904;2023-05-10T00:23:51;3.77;;;2.60;;
22219;SDS011;11279;48.364;10.904;2023-05-10T00:24:52;4.97;;;3.33;;
22219;SDS011;11279;48.364;10.904;2023-05-10T00:25:52;3.00;;;2.33;;
22219;SDS011;11279;48.364;10.904;2023-05-10T00:26:52;3.30;;;2.30;;
22219;SDS011;11279;48.364;10.904;2023-05-10T00:27:53;2.30;;;2.10;;
22219;SDS011;11279;48.364;10.904;2023-05-10T00:28:55;3.42;;;2.10;;
22219;SDS011;11279;48.364;10.904;2023-05-10T00:29:56;2.30;;;2.10;;
22219;SDS011;11279;48.364;10.904;2023-05-10T00:30:57;3.33;;;2.60;;
22219;SDS011;11279;48.364;10.904;2023-05-10T00:31:57;4.53;;;2.30;;
22219;SDS011;11279;48.364;10.904;2023-05-10T00:32:58;3.63;;;2.50;;
22219;SDS011;11279;48.364;10.904;2023-05-10T00:33:58;4.33;;;2.30;;
22219;SDS011;11279;48.364;10.904;2023-05-10T00:34:59;3.93;;;2.40;;
22219;SDS011;11279;48.364;10.904;2023-05-10T00:35:59;4.73;;;2.50;;
22219;SDS011;11279;48.364;10.904;2023-05-10T00:36:59;3.77;;;2.20;;
22219;SDS011;11279;48.364;10.904;2023-05-10T00:38:00;4.27;;;2.57;;
22219;SDS011;11279;48.364;10.904;2023-05-10T00:39:00;3.63;;;2.53;;
22219;SDS011;11279;48.364;10.904;2023-05-10T00:40:01;3.07;;;2.40;;
22219;SDS011;11279;48.364;10.904;2023-05-10T00:41:02;4.00;;;2.47;;
22219;SDS011;11279;48.364;10.904;2023-05-10T00:42:02;4.27;;;2.40;;
22219;SDS011;11279;48.364;10.904;2023-05-10T00:43:04;2.47;;;2.05;;
22219;SDS011;11279;48.364;10.904;2023-05-10T00:44:05;2.37;;;2.17;;
22219;SDS011;11279;48.364;10.904;2023-05-10T00:45:05;2.43;;;2.20;;
22219;SDS011;11279;48.364;10.904;2023-05-10T00:46:06;3.63;;;2.30;;
22219;SDS011;11279;48.364;10.904;2023-05-10T00:47:07;3.17;;;2.35;;
22219;SDS011;11279;48.364;10.904;2023-05-10T00:48:08;5.53;;;2.30;;
22219;SDS011;11279;48.364;10.904;2023-05-10T00:49:08;3.33;;;2.80;;
22219;SDS011;11279;48.364;10.904;2023-05-10T00:50:09;4.33;;;2.90;;
22219;SDS011;11279;48.364;10.904;2023-05-10T00:51:09;5.63;;;3.73;;
22219;SDS011;11279;48.364;10.904;2023-05-10T00:52:10;5.53;;;3.70;;
22219;SDS011;11279;48.364;10.904;2023-05-10T00:53:10;3.70;;;2.50;;
22219;SDS011;11279;48.364;10.904;2023-05-10T00:54:11;5.97;;;3.53;;
22219;SDS011;11279;48.364;10.904;2023-05-10T00:55:12;8.95;;;6.00;;
22219;SDS011;11279;48.364;10.904;2023-05-10T00:56:12;9.50;;;4.93;;
22219;SDS011;11279;48.364;10.904;2023-05-10T00:57:13;9.37;;;4.77;;
22219;SDS011;11279;48.364;10.904;2023-05-10T00:58:14;8.87;;;5.93;;
22219;SDS011;11279;48.364;10.904;2023-05-10T00:59:15;5.37;;;3.70;;
22219;SDS011;11279;48.364;10.904;2023-05-10T01:00:17;5.50;;;3.63;;
22219;SDS011;11279;48.364;10.904;2023-05-10T01:01:18;6.40;;;4.13;;
22219;SDS011;11279;48.364;10.904;2023-05-10T01:02:19;3.72;;;2.80;;
22219;SDS011;11279;48.364;10.904;2023-05-10T01:03:19;5.47;;;3.23;;
22219;SDS011;11279;48.364;10.904;2023-05-10T01:04:20;3.75;;;2.30;;
22219;SDS011;11279;48.364;10.904;2023-05-10T01:05:25;2.95;;;2.30;;
22219;SDS011;11279;48.364;10.904;2023-05-10T01:06:27;3.05;;;2.30;;
22219;SDS011;11279;48.364;10.904;2023-05-10T01:07:28;2.90;;;2.08;;
22219;SDS011;11279;48.364;10.904;2023-05-10T01:08:29;2.83;;;1.93;;
22219;SDS011;11279;48.364;10.904;2023-05-10T01:09:29;3.67;;;1.97;;
22219;SDS011;11279;48.364;10.904;2023-05-10T01:10:30;3.13;;;1.87;;
22219;SDS011;11279;48.364;10.904;2023-05-10T01:11:31;3.67;;;1.70;;
22219;SDS011;11279;48.364;10.904;2023-05-10T01:12:31;1.60;;;1.50;;
22219;SDS011;11279;48.364;10.904;2023-05-10T01:13:34;2.00;;;1.67;;
22219;SDS011;11279;48.364;10.904;2023-05-10T01:14:37;2.75;;;1.98;;
22219;SDS011;11279;48.364;10.904;2023-05-10T01:15:37;2.00;;;1.60;;
22219;SDS011;11279;48.364;10.904;2023-05-10T01:16:39;1.63;;;1.45;;
22219;SDS011;11279;48.364;10.904;2023-05-10T01:17:42;1.30;;;1.20;;
22219;SDS011;11279;48.364;10.904;2023-05-10T01:18:42;2.30;;;1.58;;
22219;SDS011;11279;48.364;10.904;2023-05-10T01:19:44;2.05;;;1.70;;
22219;SDS011;11279;48.364;10.904;2023-05-10T01:20:44;2.10;;;1.33;;
22219;SDS011;11279;48.364;10.904;2023-05-10T01:28:32;3.05;;;1.58;;
22219;SDS011;11279;48.364;10.904;2023-05-10T01:31:06;2.53;;;1.50;;
22219;SDS011;11279;48.364;10.904;2023-05-10T01:32:34;1.95;;;1.30;;
22219;SDS011;11279;48.364;10.904;2023-05-10T01:33:55;2.80;;;1.20;;
22219;SDS011;11279;48.364;10.904;2023-05-10T01:35:00;1.50;;;1.25;;
22219;SDS011;11279;48.364;10.904;2023-05-10T01:38:53;1.73;;;1.48;;
22219;SDS011;11279;48.364;10.904;2023-05-10T01:40:01;2.50;;;1.50;;
22219;SDS011;11279;48.364;10.904;2023-05-10T01:41:17;3.13;;;1.65;;
22219;SDS011;11279;48.364;10.904;2023-05-10T01:42:25;3.22;;;1.63;;
22219;SDS011;11279;48.364;10.904;2023-05-10T01:43:28;2.20;;;1.52;;
22219;SDS011;11279;48.364;10.904;2023-05-10T01:46:20;1.17;;;1.10;;
22219;SDS011;11279;48.364;10.904;2023-05-10T01:47:37;1.70;;;1.35;;
22219;SDS011;11279;48.364;10.904;2023-05-10T01:48:40;3.13;;;1.50;;
22219;SDS011;11279;48.364;10.904;2023-05-10T01:49:49;1.45;;;1.20;;
22219;SDS011;11279;48.364;10.904;2023-05-10T01:50:50;1.35;;;1.25;;
22219;SDS011;11279;48.364;10.904;2023-05-10T01:51:51;1.47;;;1.37;;
22219;SDS011;11279;48.364;10.904;2023-05-10T01:52:57;1.38;;;1.27;;
22219;SDS011;11279;48.364;10.904;2023-05-10T01:54:00;1.70;;;1.30;;
22219;SDS011;11279;48.364;10.904;2023-05-10T01:55:02;1.80;;;1.30;;
22219;SDS011;11279;48.364;10.904;2023-05-10T01:56:05;2.72;;;1.52;;
22219;SDS011;11279;48.364;10.904;2023-05-10T01:57:07;1.50;;;1.40;;
22219;SDS011;11279;48.364;10.904;2023-05-10T01:58:10;1.20;;;1.10;;
22219;SDS011;11279;48.364;10.904;2023-05-10T01:59:15;4.03;;;1.23;;
22219;SDS011;11279;48.364;10.904;2023-05-10T02:00:17;2.45;;;1.15;;
22219;SDS011;11279;48.364;10.904;2023-05-10T02:01:19;3.15;;;1.42;;
22219;SDS011;11279;48.364;10.904;2023-05-10T02:02:21;2.15;;;1.40;;
22219;SDS011;11279;48.364;10.904;2023-05-10T02:03:23;1.90;;;1.35;;
22219;SDS011;11279;48.364;10.904;2023-05-10T02:04:24;2.00;;;1.30;;
22219;SDS011;11279;48.364;10.904;2023-05-10T02:05:25;1.52;;;1.42;;
22219;SDS011;11279;48.364;10.904;2023-05-10T02:06:27;1.40;;;1.30;;
22219;SDS011;11279;48.364;10.904;2023-05-10T02:07:28;3.00;;;1.30;;
22219;SDS011;11279;48.364;10.904;2023-05-10T02:08:28;1.60;;;1.20;;
22219;SDS011;11279;48.364;10.904;2023-05-10T02:09:29;1.60;;;1.20;;
22219;SDS011;11279;48.364;10.904;2023-05-10T02:10:35;1.83;;;1.00;;
22219;SDS011;11279;48.364;10.904;2023-05-10T02:11:37;1.13;;;1.10;;
22219;SDS011;11279;48.364;10.904;2023-05-10T02:12:39;1.45;;;1.20;;
22219;SDS011;11279;48.364;10.904;2023-05-10T02:13:41;4.25;;;1.20;;
22219;SDS011;11279;48.364;10.904;2023-05-10T02:14:43;1.30;;;1.20;;
22219;SDS011;11279;48.364;10.904;2023-05-10T02:15:47;1.38;;;1.15;;
22219;SDS011;11279;48.364;10.904;2023-05-10T02:16:48;2.08;;;1.40;;
22219;SDS011;11279;48.364;10.904;2023-05-10T02:17:50;1.38;;;1.17;;
22219;SDS011;11279;48.364;10.904;2023-05-10T02:18:52;2.15;;;0.90;;
22219;SDS011;11279;48.364;10.904;2023-05-10T02:19:53;1.63;;;1.30;;
22219;SDS011;11279;48.364;10.904;2023-05-10T02:20:55;2.38;;;1.40;;
22219;SDS011;11279;48.364;10.904;2023-05-10T02:21:56;1.50;;;1.17;;
22219;SDS011;11279;48.364;10.904;2023-05-10T02:22:57;1.10;;;1.02;;
22219;SDS011;11279;48.364;10.904;2023-05-10T02:23:58;2.45;;;1.27;;
22219;SDS011;11279;48.364;10.904;2023-05-10T02:24:59;2.20;;;1.08;;
22219;SDS011;11279;48.364;10.904;2023-05-10T02:26:00;1.87;;;1.00;;
22219;SDS011;11279;48.364;10.904;2023-05-10T02:27:02;1.30;;;1.20;;
22219;SDS011;11279;48.364;10.904;2023-05-10T02:28:04;1.65;;;1.17;;
22219;SDS011;11279;48.364;10.904;2023-05-10T02:29:06;0.90;;;0.90;;
22219;SDS011;11279;48.364;10.904;2023-05-10T02:30:07;1.15;;;1.05;;
22219;SDS011;11279;48.364;10.904;2023-05-10T02:31:08;2.67;;;1.10;;
22219;SDS011;11279;48.364;10.904;2023-05-10T02:32:10;1.25;;;1.15;;
22219;SDS011;11279;48.364;10.904;2023-05-10T02:33:12;1.50;;;1.08;;
22219;SDS011;11279;48.364;10.904;2023-05-10T02:34:13;1.48;;;1.15;;
22219;SDS011;11279;48.364;10.904;2023-05-10T02:35:14;2.57;;;1.13;;
22219;SDS011;11279;48.364;10.904;2023-05-10T02:36:15;1.33;;;1.20;;
22219;SDS011;11279;48.364;10.904;2023-05-10T02:37:16;1.27;;;1.10;;
22219;SDS011;11279;48.364;10.904;2023-05-10T02:38:19;1.20;;;1.00;;
22219;SDS011;11279;48.364;10.904;2023-05-10T02:39:21;2.55;;;1.02;;
22219;SDS011;11279;48.364;10.904;2023-05-10T02:40:22;1.02;;;0.93;;
22219;SDS011;11279;48.364;10.904;2023-05-10T02:41:23;0.93;;;0.93;;
22219;SDS011;11279;48.364;10.904;2023-05-10T02:42:25;1.15;;;1.05;;
22219;SDS011;11279;48.364;10.904;2023-05-10T02:43:27;0.88;;;0.88;;
22219;SDS011;11279;48.364;10.904;2023-05-10T02:44:30;1.23;;;0.80;;
22219;SDS011;11279;48.364;10.904;2023-05-10T02:45:31;1.48;;;0.85;;
22219;SDS011;11279;48.364;10.904;2023-05-10T02:46:32;1.50;;;0.87;;
22219;SDS011;11279;48.364;10.904;2023-05-10T02:47:33;0.97;;;0.87;;
22219;SDS011;11279;48.364;10.904;2023-05-10T02:48:34;1.17;;;0.80;;
22219;SDS011;11279;48.364;10.904;2023-05-10T02:49:34;0.80;;;0.80;;
22219;SDS011;11279;48.364;10.904;2023-05-10T02:50:35;1.23;;;0.90;;
22219;SDS011;11279;48.364;10.904;2023-05-10T02:51:37;5.43;;;2.45;;
22219;SDS011;11279;48.364;10.904;2023-05-10T02:52:49;2.45;;;1.10;;
22219;SDS011;11279;48.364;10.904;2023-05-10T02:53:51;1.10;;;1.00;;
22219;SDS011;11279;48.364;10.904;2023-05-10T02:54:58;0.77;;;0.70;;
22219;SDS011;11279;48.364;10.904;2023-05-10T02:56:01;1.00;;;0.90;;
22219;SDS011;11279;48.364;10.904;2023-05-10T02:57:07;0.68;;;0.68;;
22219;SDS011;11279;48.364;10.904;2023-05-10T02:58:09;1.38;;;0.90;;
22219;SDS011;11279;48.364;10.904;2023-05-10T02:59:10;1.43;;;0.83;;
22219;SDS011;11279;48.364;10.904;2023-05-10T03:00:11;1.53;;;0.70;;
22219;SDS011;11279;48.364;10.904;2023-05-10T03:01:11;0.70;;;0.70;;
22219;SDS011;11279;48.364;10.904;2023-05-10T03:02:12;1.77;;;0.80;;
22219;SDS011;11279;48.364;10.904;2023-05-10T03:03:13;1.40;;;0.70;;
22219;SDS011;11279;48.364;10.904;2023-05-10T03:04:13;1.47;;;0.90;;
22219;SDS011;11279;48.364;10.904;2023-05-10T03:05:13;1.23;;;0.83;;
22219;SDS011;11279;48.364;10.904;2023-05-10T03:06:14;1.23;;;0.80;;
22219;SDS011;11279;48.364;10.904;2023-05-10T03:07:16;2.33;;;0.80;;
22219;SDS011;11279;48.364;10.904;2023-05-10T03:08:19;0.77;;;0.63;;
22219;SDS011;11279;48.364;10.904;2023-05-10T03:09:19;1.00;;;1.00;;
22219;SDS011;11279;48.364;10.904;2023-05-10T03:10:22;0.82;;;0.82;;
22219;SDS011;11279;48.364;10.904;2023-05-10T03:11:39;0.75;;;0.63;;
22219;SDS011;11279;48.364;10.904;2023-05-10T03:12:57;0.73;;;0.73;;
22219;SDS011;11279;48.364;10.904;2023-05-10T03:15:55;1.08;;;0.70;;
22219;SDS011;11279;48.364;10.904;2023-05-10T03:17:04;0.88;;;0.88;;
22219;SDS011;11279;48.364;10.904;2023-05-10T03:18:15;1.10;;;0.65;;
22219;SDS011;11279;48.364;10.904;2023-05-10T03:19:24;0.60;;;0.60;;
22219;SDS011;11279;48.364;10.904;2023-05-10T03:20:35;1.30;;;0.80;;
22219;SDS011;11279;48.364;10.904;2023-05-10T03:21:37;0.80;;;0.80;;
22219;SDS011;11279;48.364;10.904;2023-05-10T03:22:47;1.30;;;0.50;;
22219;SDS011;11279;48.364;10.904;2023-05-10T03:23:58;0.80;;;0.80;;
22219;SDS011;11279;48.364;10.904;2023-05-10T03:25:00;0.95;;;0.60;;
22219;SDS011;11279;48.364;10.904;2023-05-10T03:26:05;0.90;;;0.63;;
22219;SDS011;11279;48.364;10.904;2023-05-10T03:27:07;2.70;;;0.70;;
22219;SDS011;11279;48.364;10.904;2023-05-10T03:28:08;0.60;;;0.57;;
22219;SDS011;11279;48.364;10.904;2023-05-10T03:29:08;0.47;;;0.47;;
22219;SDS011;11279;48.364;10.904;2023-05-10T03:30:11;1.55;;;0.68;;
22219;SDS011;11279;48.364;10.904;2023-05-10T03:31:12;0.77;;;0.50;;
22219;SDS011;11279;48.364;10.904;2023-05-10T03:32:13;0.70;;;0.50;;
22219;SDS011;11279;48.364;10.904;2023-05-10T03:33:13;0.73;;;0.73;;
22219;SDS011;11279;48.364;10.904;2023-05-10T03:34:14;0.70;;;0.70;;
22219;SDS011;11279;48.364;10.904;2023-05-10T03:35:14;0.63;;;0.60;;
22219;SDS011;11279;48.364;10.904;2023-05-10T03:36:15;2.63;;;0.80;;
22219;SDS011;11279;48.364;10.904;2023-05-10T03:37:16;0.50;;;0.50;;
22219;SDS011;11279;48.364;10.904;2023-05-10T03:38:16;0.63;;;0.60;;
22219;SDS011;11279;48.364;10.904;2023-05-10T03:39:16;0.77;;;0.70;;
22219;SDS011;11279;48.364;10.904;2023-05-10T03:40:17;0.50;;;0.50;;
22219;SDS011;11279;48.364;10.904;2023-05-10T03:41:17;0.90;;;0.70;;
22219;SDS011;11279;48.364;10.904;2023-05-10T03:42:18;1.00;;;0.90;;
22219;SDS011;11279;48.364;10.904;2023-05-10T03:43:18;1.33;;;1.17;;
22219;SDS011;11279;48.364;10.904;2023-05-10T03:44:19;1.00;;;0.90;;
22219;SDS011;11279;48.364;10.904;2023-05-10T03:45:19;0.50;;;0.50;;
22219;SDS011;11279;48.364;10.904;2023-05-10T03:46:20;0.67;;;0.67;;
22219;SDS011;11279;48.364;10.904;2023-05-10T03:47:20;0.60;;;0.60;;
22219;SDS011;11279;48.364;10.904;2023-05-10T03:48:21;0.80;;;0.70;;
22219;SDS011;11279;48.364;10.904;2023-05-10T03:49:21;2.30;;;0.57;;
22219;SDS011;11279;48.364;10.904;2023-05-10T03:50:22;1.30;;;0.70;;
22219;SDS011;11279;48.364;10.904;2023-05-10T03:51:22;0.60;;;0.60;;
22219;SDS011;11279;48.364;10.904;2023-05-10T03:52:24;1.30;;;0.70;;
22219;SDS011;11279;48.364;10.904;2023-05-10T03:53:24;2.03;;;0.70;;
22219;SDS011;11279;48.364;10.904;2023-05-10T03:54:25;0.60;;;0.57;;
22219;SDS011;11279;48.364;10.904;2023-05-10T03:55:25;2.00;;;0.70;;
22219;SDS011;11279;48.364;10.904;2023-05-10T03:56:26;0.80;;;0.50;;
22219;SDS011;11279;48.364;10.904;2023-05-10T03:57:26;1.53;;;1.07;;
22219;SDS011;11279;48.364;10.904;2023-05-10T03:58:27;0.90;;;0.73;;
22219;SDS011;11279;48.364;10.904;2023-05-10T03:59:27;0.50;;;0.50;;
22219;SDS011;11279;48.364;10.904;2023-05-10T04:00:28;0.80;;;0.40;;
22219;SDS011;11279;48.364;10.904;2023-05-10T04:01:28;1.90;;;0.43;;
22219;SDS011;11279;48.364;10.904;2023-05-10T04:02:28;0.80;;;0.50;;
22219;SDS011;11279;48.364;10.904;2023-05-10T04:03:30;0.60;;;0.60;;
22219;SDS011;11279;48.364;10.904;2023-05-10T04:04:30;0.57;;;0.57;;
22219;SDS011;11279;48.364;10.904;2023-05-10T04:05:31;0.83;;;0.50;;
22219;SDS011;11279;48.364;10.904;2023-05-10T04:06:31;0.40;;;0.40;;
22219;SDS011;11279;48.364;10.904;2023-05-10T04:07:32;0.60;;;0.50;;
22219;SDS011;11279;48.364;10.904;2023-05-10T04:08:32;0.43;;;0.43;;
22219;SDS011;11279;48.364;10.904;2023-05-10T04:09:33;0.40;;;0.40;;
22219;SDS011;11279;48.364;10.904;2023-05-10T04:10:33;2.60;;;0.60;;
22219;SDS011;11279;48.364;10.904;2023-05-10T04:11:33;0.40;;;0.40;;
22219;SDS011;11279;48.364;10.904;2023-05-10T04:12:34;0.47;;;0.40;;
22219;SDS011;11279;48.364;10.904;2023-05-10T04:13:34;0.50;;;0.37;;
22219;SDS011;11279;48.364;10.904;2023-05-10T04:14:35;0.83;;;0.60;;
22219;SDS011;11279;48.364;10.904;2023-05-10T04:15:35;1.13;;;0.60;;
22219;SDS011;11279;48.364;10.904;2023-05-10T04:16:36;1.53;;;0.50;;
22219;SDS011;11279;48.364;10.904;2023-05-10T04:17:36;0.40;;;0.40;;
22219;SDS011;11279;48.364;10.904;2023-05-10T04:18:37;0.55;;;0.55;;
22219;SDS011;11279;48.364;10.904;2023-05-10T04:19:38;0.40;;;0.40;;
22219;SDS011;11279;48.364;10.904;2023-05-10T04:20:38;0.93;;;0.70;;
22219;SDS011;11279;48.364;10.904;2023-05-10T04:21:38;0.40;;;0.40;;
22219;SDS011;11279;48.364;10.904;2023-05-10T04:22:39;0.73;;;0.50;;
22219;SDS011;11279;48.364;10.904;2023-05-10T04:23:39;1.17;;;0.53;;
22219;SDS011;11279;48.364;10.904;2023-05-10T04:24:40;0.50;;;0.50;;
22219;SDS011;11279;48.364;10.904;2023-05-10T04:25:41;2.83;;;0.67;;
22219;SDS011;11279;48.364;10.904;2023-05-10T04:26:41;0.50;;;0.50;;
22219;SDS011;11279;48.364;10.904;2023-05-10T04:27:41;1.10;;;0.60;;
22219;SDS011;11279;48.364;10.904;2023-05-10T04:28:42;0.70;;;0.70;;
22219;SDS011;11279;48.364;10.904;2023-05-10T04:29:42;1.10;;;0.60;;
22219;SDS011;11279;48.364;10.904;2023-05-10T04:30:43;2.40;;;0.70;;
22219;SDS011;11279;48.364;10.904;2023-05-10T04:31:43;0.70;;;0.60;;
22219;SDS011;11279;48.364;10.904;2023-05-10T04:32:43;1.13;;;0.60;;
22219;SDS011;11279;48.364;10.904;2023-05-10T04:33:44;0.47;;;0.40;;
22219;SDS011;11279;48.364;10.904;2023-05-10T04:34:44;0.80;;;0.60;;
22219;SDS011;11279;48.364;10.904;2023-05-10T04:35:45;1.17;;;0.50;;
22219;SDS011;11279;48.364;10.904;2023-05-10T04:36:45;1.90;;;0.60;;
22219;SDS011;11279;48.364;10.904;2023-05-10T04:37:46;0.93;;;0.70;;
22219;SDS011;11279;48.364;10.904;2023-05-10T04:38:46;1.67;;;0.60;;
22219;SDS011;11279;48.364;10.904;2023-05-10T04:39:47;0.63;;;0.40;;
22219;SDS011;11279;48.364;10.904;2023-05-10T04:40:47;1.03;;;0.50;;
22219;SDS011;11279;48.364;10.904;2023-05-10T04:41:47;0.60;;;0.60;;
22219;SDS011;11279;48.364;10.904;2023-05-10T04:42:48;0.70;;;0.60;;
22219;SDS011;11279;48.364;10.904;2023-05-10T04:43:48;1.23;;;0.67;;
22219;SDS011;11279;48.364;10.904;2023-05-10T04:44:49;0.60;;;0.60;;
22219;SDS011;11279;48.364;10.904;2023-05-10T04:45:49;1.10;;;0.57;;
22219;SDS011;11279;48.364;10.904;2023-05-10T04:46:50;1.60;;;0.70;;
22219;SDS011;11279;48.364;10.904;2023-05-10T04:47:50;0.83;;;0.73;;
22219;SDS011;11279;48.364;10.904;2023-05-10T04:48:51;1.07;;;0.60;;
22219;SDS011;11279;48.364;10.904;2023-05-10T04:49:51;2.03;;;0.70;;
22219;SDS011;11279;48.364;10.904;2023-05-10T04:50:52;1.07;;;0.63;;
22219;SDS011;11279;48.364;10.904;2023-05-10T04:51:52;0.60;;;0.60;;
22219;SDS011;11279;48.364;10.904;2023-05-10T04:52:52;1.80;;;0.50;;
22219;SDS011;11279;48.364;10.904;2023-05-10T04:53:53;1.30;;;0.70;;
22219;SDS011;11279;48.364;10.904;2023-05-10T04:54:53;2.20;;;0.90;;
22219;SDS011;11279;48.364;10.904;2023-05-10T04:55:54;0.83;;;0.73;;
22219;SDS011;11279;48.364;10.904;2023-05-10T04:56:54;0.83;;;0.80;;
22219;SDS011;11279;48.364;10.904;2023-05-10T04:57:55;0.87;;;0.70;;
22219;SDS011;11279;48.364;10.904;2023-05-10T04:58:57;2.45;;;0.77;;
22219;SDS011;11279;48.364;10.904;2023-05-10T04:59:57;0.63;;;0.63;;
22219;SDS011;11279;48.364;10.904;2023-05-10T05:01:04;2.60;;;0.63;;
22219;SDS011;11279;48.364;10.904;2023-05-10T05:02:05;2.38;;;0.90;;
22219;SDS011;11279;48.364;10.904;2023-05-10T05:03:05;3.10;;;0.70;;
22219;SDS011;11279;48.364;10.904;2023-05-10T05:04:06;1.80;;;0.70;;
22219;SDS011;11279;48.364;10.904;2023-05-10T05:05:07;2.57;;;0.90;;
22219;SDS011;11279;48.364;10.904;2023-05-10T05:06:07;1.00;;;0.90;;
22219;SDS011;11279;48.364;10.904;2023-05-10T05:07:08;1.03;;;0.80;;
22219;SDS011;11279;48.364;10.904;2023-05-10T05:08:08;0.90;;;0.80;;
22219;SDS011;11279;48.364;10.904;2023-05-10T05:09:09;0.90;;;0.60;;
22219;SDS011;11279;48.364;10.904;2023-05-10T05:10:10;2.88;;;1.20;;
22219;SDS011;11279;48.364;10.904;2023-05-10T05:11:10;1.83;;;1.07;;
22219;SDS011;11279;48.364;10.904;2023-05-10T05:12:10;2.57;;;0.90;;
22219;SDS011;11279;48.364;10.904;2023-05-10T05:13:13;0.88;;;0.85;;
22219;SDS011;11279;48.364;10.904;2023-05-10T05:14:14;2.40;;;0.63;;
22219;SDS011;11279;48.364;10.904;2023-05-10T05:15:14;0.90;;;0.90;;
22219;SDS011;11279;48.364;10.904;2023-05-10T05:16:16;1.35;;;0.80;;
22219;SDS011;11279;48.364;10.904;2023-05-10T05:17:17;0.60;;;0.60;;
22219;SDS011;11279;48.364;10.904;2023-05-10T05:18:17;0.60;;;0.60;;
22219;SDS011;11279;48.364;10.904;2023-05-10T05:19:18;0.70;;;0.70;;
22219;SDS011;11279;48.364;10.904;2023-05-10T05:20:18;0.70;;;0.70;;
22219;SDS011;11279;48.364;10.904;2023-05-10T05:21:19;1.17;;;0.60;;
22219;SDS011;11279;48.364;10.904;2023-05-10T05:22:19;2.30;;;0.90;;
22219;SDS011;11279;48.364;10.904;2023-05-10T05:23:26;1.63;;;0.88;;
22219;SDS011;11279;48.364;10.904;2023-05-10T05:24:27;1.53;;;0.70;;
22219;SDS011;11279;48.364;10.904;2023-05-10T05:25:27;1.00;;;0.87;;
22219;SDS011;11279;48.364;10.904;2023-05-10T05:26:28;1.00;;;0.90;;
22219;SDS011;11279;48.364;10.904;2023-05-10T05:27:28;3.47;;;2.47;;
22219;SDS011;11279;48.364;10.904;2023-05-10T05:28:29;1.50;;;1.33;;
22219;SDS011;11279;48.364;10.904;2023-05-10T05:29:32;2.33;;;0.80;;
22219;SDS011;11279;48.364;10.904;2023-05-10T05:30:33;1.00;;;0.90;;
22219;SDS011;11279;48.364;10.904;2023-05-10T05:31:33;2.23;;;0.90;;
22219;SDS011;11279;48.364;10.904;2023-05-10T05:32:34;1.40;;;0.93;;
22219;SDS011;11279;48.364;10.904;2023-05-10T05:33:34;1.83;;;1.00;;
22219;SDS011;11279;48.364;10.904;2023-05-10T05:34:35;1.77;;;1.00;;
22219;SDS011;11279;48.364;10.904;2023-05-10T05:35:35;1.80;;;1.10;;
22219;SDS011;11279;48.364;10.904;2023-05-10T05:36:36;0.97;;;0.93;;
22219;SDS011;11279;48.364;10.904;2023-05-10T05:37:38;2.67;;;1.08;;
22219;SDS011;11279;48.364;10.904;2023-05-10T05:38:39;1.40;;;1.10;;
22219;SDS011;11279;48.364;10.904;2023-05-10T05:39:39;1.27;;;0.83;;
22219;SDS011;11279;48.364;10.904;2023-05-10T05:40:39;3.57;;;1.00;;
22219;SDS011;11279;48.364;10.904;2023-05-10T05:41:40;2.20;;;0.90;;
22219;SDS011;11279;48.364;10.904;2023-05-10T05:42:40;2.17;;;0.90;;
22219;SDS011;11279;48.364;10.904;2023-05-10T05:43:41;2.07;;;1.10;;
22219;SDS011;11279;48.364;10.904;2023-05-10T05:44:41;3.40;;;1.00;;
22219;SDS011;11279;48.364;10.904;2023-05-10T05:45:42;3.07;;;0.80;;
22219;SDS011;11279;48.364;10.904;2023-05-10T05:46:42;4.13;;;1.20;;
22219;SDS011;11279;48.364;10.904;2023-05-10T05:47:43;2.10;;;0.90;;
22219;SDS011;11279;48.364;10.904;2023-05-10T05:48:43;2.90;;;0.97;;
22219;SDS011;11279;48.364;10.904;2023-05-10T05:49:43;1.17;;;0.90;;
22219;SDS011;11279;48.364;10.904;2023-05-10T05:50:45;1.10;;;1.00;;
22219;SDS011;11279;48.364;10.904;2023-05-10T05:51:46;1.17;;;0.90;;
22219;SDS011;11279;48.364;10.904;2023-05-10T05:52:49;2.08;;;1.10;;
22219;SDS011;11279;48.364;10.904;2023-05-10T05:53:49;0.83;;;0.83;;
22219;SDS011;11279;48.364;10.904;2023-05-10T05:54:49;4.57;;;0.87;;
22219;SDS011;11279;48.364;10.904;2023-05-10T05:55:50;1.30;;;1.10;;
22219;SDS011;11279;48.364;10.904;2023-05-10T05:56:54;1.98;;;0.82;;
22219;SDS011;11279;48.364;10.904;2023-05-10T05:57:55;1.20;;;0.90;;
22219;SDS011;11279;48.364;10.904;2023-05-10T05:58:56;1.77;;;1.10;;
22219;SDS011;11279;48.364;10.904;2023-05-10T05:59:56;1.50;;;1.20;;
22219;SDS011;11279;48.364;10.904;2023-05-10T06:00:57;3.83;;;1.27;;
22219;SDS011;11279;48.364;10.904;2023-05-10T06:01:57;3.37;;;1.03;;
22219;SDS011;11279;48.364;10.904;2023-05-10T06:02:57;1.40;;;1.10;;
22219;SDS011;11279;48.364;10.904;2023-05-10T06:03:58;2.43;;;1.03;;
22219;SDS011;11279;48.364;10.904;2023-05-10T06:04:58;3.50;;;1.43;;
22219;SDS011;11279;48.364;10.904;2023-05-10T06:05:59;5.17;;;1.20;;
22219;SDS011;11279;48.364;10.904;2023-05-10T06:06:59;5.03;;;1.33;;
22219;SDS011;11279;48.364;10.904;2023-05-10T06:08:00;3.33;;;1.10;;
22219;SDS011;11279;48.364;10.904;2023-05-10T06:09:01;2.30;;;1.35;;
22219;SDS011;11279;48.364;10.904;2023-05-10T06:10:01;1.63;;;1.00;;
22219;SDS011;11279;48.364;10.904;2023-05-10T06:11:02;2.40;;;1.00;;
22219;SDS011;11279;48.364;10.904;2023-05-10T06:12:04;1.05;;;0.80;;
22219;SDS011;11279;48.364;10.904;2023-05-10T06:13:05;2.88;;;1.00;;
22219;SDS011;11279;48.364;10.904;2023-05-10T06:14:05;3.40;;;0.90;;
22219;SDS011;11279;48.364;10.904;2023-05-10T06:15:07;1.13;;;1.05;;
22219;SDS011;11279;48.364;10.904;2023-05-10T06:16:08;1.50;;;1.05;;
22219;SDS011;11279;48.364;10.904;2023-05-10T06:17:09;1.60;;;1.03;;
22219;SDS011;11279;48.364;10.904;2023-05-10T06:18:09;1.20;;;1.10;;
22219;SDS011;11279;48.364;10.904;2023-05-10T06:19:10;1.30;;;1.20;;
22219;SDS011;11279;48.364;10.904;2023-05-10T06:20:10;2.10;;;1.10;;